sensor_id;sensor_type;location;lat;lon;timestamp;pressure;altitude;pressure_sealevel;temperature;humidity
49827;BME280;35715;51.570;6.036;2024-02-04T00:02:20;102179.81;;;11.55;100.00
49827;BME280;35715;51.570;6.036;2024-02-04T00:04:47;102178.53;;;11.50;100.00
49827;BME280;35715;51.570;6.036;2024-02-04T00:07:13;102186.28;;;11.50;100.00
49827;BME280;35715;51.570;6.036;2024-02-04T00:09:38;102185.13;;;11.46;100.00
49827;BME280;35715;51.570;6.036;2024-02-04T00:12:04;102198.06;;;11.46;100.00
49827;BME280;35715;51.570;6.036;2024-02-04T00:14:31;102194.41;;;11.44;100.00
49827;BME280;35715;51.570;6.036;2024-02-04T00:16:58;102192.22;;;11.49;100.00
49827;BME280;35715;51.570;6.036;2024-02-04T00:19:24;102191.72;;;11.53;100.00
49827;BME280;35715;51.570;6.036;2024-02-04T00:21:50;102192.22;;;11.49;100.00
49827;BME280;35715;51.570;6.036;2024-02-04T00:24:15;102191.31;;;11.48;100.00
49827;BME280;35715;51.570;6.036;2024-02-04T00:26:40;102190.44;;;11.48;100.00
49827;BME280;35715;51.570;6.036;2024-02-04T00:29:06;102188.88;;;11.50;100.00
49827;BME280;35715;51.570;6.036;2024-02-04T00:31:31;102187.06;;;11.49;100.00
49827;BME280;35715;51.570;6.036;2024-02-04T00:33:58;102194.66;;;11.47;100.00
49827;BME280;35715;51.570;6.036;2024-02-04T00:36:24;102184.19;;;11.46;100.00
49827;BME280;35715;51.570;6.036;2024-02-04T00:38:49;102180.84;;;11.47;100.00
49827;BME280;35715;51.570;6.036;2024-02-04T00:41:14;102184.06;;;11.44;100.00
49827;BME280;35715;51.570;6.036;2024-02-04T00:43:40;102189.78;;;11.40;100.00
49827;BME280;35715;51.570;6.036;2024-02-04T00:46:05;102186.25;;;11.40;100.00
49827;BME280;35715;51.570;6.036;2024-02-04T00:48:30;102188.97;;;11.41;100.00
49827;BME280;35715;51.570;6.036;2024-02-04T00:50:56;102182.16;;;11.42;100.00
49827;BME280;35715;51.570;6.036;2024-02-04T00:53:21;102187.19;;;11.40;100.00
49827;BME280;35715;51.570;6.036;2024-02-04T00:55:46;102188.09;;;11.41;100.00
49827;BME280;35715;51.570;6.036;2024-02-04T00:58:15;102187.69;;;11.36;100.00
49827;BME280;35715;51.570;6.036;2024-02-04T01:00:40;102192.34;;;11.30;100.00
49827;BME280;35715;51.570;6.036;2024-02-04T01:03:05;102186.38;;;11.31;100.00
49827;BME280;35715;51.570;6.036;2024-02-04T01:05:31;102189.50;;;11.27;100.00
49827;BME280;35715;51.570;6.036;2024-02-04T01:07:56;102192.06;;;11.27;100.00
49827;BME280;35715;51.570;6.036;2024-02-04T01:10:21;102197.09;;;11.25;100.00
49827;BME280;35715;51.570;6.036;2024-02-04T01:12:47;102201.88;;;11.31;100.00
49827;BME280;35715;51.570;6.036;2024-02-04T01:15:12;102200.09;;;11.30;100.00
49827;BME280;35715;51.570;6.036;2024-02-04T01:17:38;102198.53;;;11.32;100.00
49827;BME280;35715;51.570;6.036;2024-02-04T01:20:05;102202.00;;;11.32;100.00
49827;BME280;35715;51.570;6.036;2024-02-04T01:22:31;102206.28;;;11.32;100.00
49827;BME280;35715;51.570;6.036;2024-02-04T01:24:56;102203.69;;;11.32;100.00
49827;BME280;35715;51.570;6.036;2024-02-04T01:27:21;102197.91;;;11.34;100.00
49827;BME280;35715;51.570;6.036;2024-02-04T01:29:50;102201.13;;;11.42;100.00
49827;BME280;35715;51.570;6.036;2024-02-04T01:32:15;102207.19;;;11.43;100.00
49827;BME280;35715;51.570;6.036;2024-02-04T01:34:41;102210.59;;;11.42;100.00
49827;BME280;35715;51.570;6.036;2024-02-04T01:37:06;102201.28;;;11.44;100.00
49827;BME280;35715;51.570;6.036;2024-02-04T01:39:32;102200.50;;;11.45;100.00
49827;BME280;35715;51.570;6.036;2024-02-04T01:41:57;102199.97;;;11.49;100.00
49827;BME280;35715;51.570;6.036;2024-02-04T01:44:23;102201.03;;;11.51;100.00
49827;BME280;35715;51.570;6.036;2024-02-04T01:46:49;102200.38;;;11.53;100.00
49827;BME280;35715;51.570;6.036;2024-02-04T01:49:14;102199.47;;;11.53;100.00
49827;BME280;35715;51.570;6.036;2024-02-04T01:51:39;102199.22;;;11.50;100.00
49827;BME280;35715;51.570;6.036;2024-02-04T01:54:05;102202.06;;;11.53;100.00
49827;BME280;35715;51.570;6.036;2024-02-04T01:56:33;102204.78;;;11.54;100.00
49827;BME280;35715;51.570;6.036;2024-02-04T01:58:59;102207.09;;;11.51;100.00
49827;BME280;35715;51.570;6.036;2024-02-04T02:01:25;102193.53;;;11.54;100.00
49827;BME280;35715;51.570;6.036;2024-02-04T02:03:51;102202.31;;;11.56;100.00
49827;BME280;35715;51.570;6.036;2024-02-04T02:06:17;102189.25;;;11.54;100.00
49827;BME280;35715;51.570;6.036;2024-02-04T02:08:42;102193.66;;;11.56;100.00
49827;BME280;35715;51.570;6.036;2024-02-04T02:11:13;102197.28;;;11.58;100.00
49827;BME280;35715;51.570;6.036;2024-02-04T02:13:43;102204.13;;;11.57;100.00
49827;BME280;35715;51.570;6.036;2024-02-04T02:16:18;102196.38;;;11.57;100.00
49827;BME280;35715;51.570;6.036;2024-02-04T02:18:56;102201.69;;;11.59;100.00
49827;BME280;35715;51.570;6.036;2024-02-04T02:26:53;102201.41;;;11.56;100.00
49827;BME280;35715;51.570;6.036;2024-02-04T02:29:19;102205.94;;;11.58;100.00
49827;BME280;35715;51.570;6.036;2024-02-04T02:31:45;102211.88;;;11.57;100.00
49827;BME280;35715;51.570;6.036;2024-02-04T02:34:11;102211.25;;;11.60;100.00
49827;BME280;35715;51.570;6.036;2024-02-04T02:36:43;102199.09;;;11.59;100.00
49827;BME280;35715;51.570;6.036;2024-02-04T02:39:15;102199.88;;;11.58;100.00
49827;BME280;35715;51.570;6.036;2024-02-04T02:41:42;102190.59;;;11.60;100.00
49827;BME280;35715;51.570;6.036;2024-02-04T02:44:09;102189.78;;;11.61;100.00
49827;BME280;35715;51.570;6.036;2024-02-04T02:46:36;102191.09;;;11.56;100.00
49827;BME280;35715;51.570;6.036;2024-02-04T02:49:01;102186.94;;;11.58;100.00
49827;BME280;35715;51.570;6.036;2024-02-04T02:51:27;102175.84;;;11.59;100.00
49827;BME280;35715;51.570;6.036;2024-02-04T02:53:52;102172.75;;;11.63;100.00
49827;BME280;35715;51.570;6.036;2024-02-04T02:56:18;102167.44;;;11.61;100.00
49827;BME280;35715;51.570;6.036;2024-02-04T02:58:43;102167.16;;;11.58;100.00
49827;BME280;35715;51.570;6.036;2024-02-04T03:01:09;102174.13;;;11.59;100.00
49827;BME280;35715;51.570;6.036;2024-02-04T03:03:34;102170.66;;;11.59;100.00
49827;BME280;35715;51.570;6.036;2024-02-04T03:05:59;102163.03;;;11.60;100.00
49827;BME280;35715;51.570;6.036;2024-02-04T03:08:25;102167.03;;;11.57;100.00
49827;BME280;35715;51.570;6.036;2024-02-04T03:10:50;102165.38;;;11.57;100.00
49827;BME280;35715;51.570;6.036;2024-02-04T03:13:18;102161.22;;;11.59;100.00
49827;BME280;35715;51.570;6.036;2024-02-04T03:15:44;102155.16;;;11.59;100.00
49827;BME280;35715;51.570;6.036;2024-02-04T03:18:12;102152.69;;;11.60;100.00
49827;BME280;35715;51.570;6.036;2024-02-04T03:20:37;102162.16;;;11.60;100.00
49827;BME280;35715;51.570;6.036;2024-02-04T03:23:03;102174.66;;;11.55;100.00
49827;BME280;35715;51.570;6.036;2024-02-04T03:25:28;102173.88;;;11.56;100.00
49827;BME280;35715;51.570;6.036;2024-02-04T03:27:54;102172.47;;;11.60;100.00
49827;BME280;35715;51.570;6.036;2024-02-04T03:30:20;102161.09;;;11.58;100.00
49827;BME280;35715;51.570;6.036;2024-02-04T03:32:45;102165.50;;;11.59;100.00
49827;BME280;35715;51.570;6.036;2024-02-04T03:35:10;102173.00;;;11.56;100.00
49827;BME280;35715;51.570;6.036;2024-02-04T03:37:36;102177.50;;;11.58;100.00
49827;BME280;35715;51.570;6.036;2024-02-04T03:40:01;102172.19;;;11.57;100.00
49827;BME280;35715;51.570;6.036;2024-02-04T03:42:27;102158.25;;;11.54;100.00
49827;BME280;35715;51.570;6.036;2024-02-04T03:44:53;102153.97;;;11.55;100.00
49827;BME280;35715;51.570;6.036;2024-02-04T03:47:19;102160.06;;;11.56;100.00
49827;BME280;35715;51.570;6.036;2024-02-04T03:49:44;102165.59;;;11.50;100.00
49827;BME280;35715;51.570;6.036;2024-02-04T03:52:09;102163.66;;;11.47;100.00
49827;BME280;35715;51.570;6.036;2024-02-04T03:54:35;102164.31;;;11.45;100.00
49827;BME280;35715;51.570;6.036;2024-02-04T03:57:00;102173.34;;;11.40;100.00
49827;BME280;35715;51.570;6.036;2024-02-04T03:59:26;102166.38;;;11.39;100.00
49827;BME280;35715;51.570;6.036;2024-02-04T04:01:51;102171.56;;;11.39;100.00
49827;BME280;35715;51.570;6.036;2024-02-04T04:04:21;102168.03;;;11.38;100.00
49827;BME280;35715;51.570;6.036;2024-02-04T04:06:47;102165.47;;;11.38;100.00
49827;BME280;35715;51.570;6.036;2024-02-04T04:09:13;102170.38;;;11.35;100.00
49827;BME280;35715;51.570;6.036;2024-02-04T04:11:39;102167.25;;;11.29;100.00
49827;BME280;35715;51.570;6.036;2024-02-04T04:14:04;102169.59;;;11.26;100.00
49827;BME280;35715;51.570;6.036;2024-02-04T04:16:29;102167.00;;;11.26;100.00
49827;BME280;35715;51.570;6.036;2024-02-04T04:18:55;102174.75;;;11.26;100.00
49827;BME280;35715;51.570;6.036;2024-02-04T04:21:20;102187.28;;;11.21;100.00
49827;BME280;35715;51.570;6.036;2024-02-04T04:23:48;102192.44;;;11.21;100.00
49827;BME280;35715;51.570;6.036;2024-02-04T04:26:14;102196.72;;;11.21;100.00
49827;BME280;35715;51.570;6.036;2024-02-04T04:28:39;102192.69;;;11.24;100.00
49827;BME280;35715;51.570;6.036;2024-02-04T04:31:04;102193.59;;;11.25;100.00
49827;BME280;35715;51.570;6.036;2024-02-04T04:33:30;102179.66;;;11.23;100.00
49827;BME280;35715;51.570;6.036;2024-02-04T04:35:55;102162.72;;;11.26;100.00
49827;BME280;35715;51.570;6.036;2024-02-04T04:38:21;102157.56;;;11.26;100.00
49827;BME280;35715;51.570;6.036;2024-02-04T04:40:46;102157.06;;;11.30;100.00
49827;BME280;35715;51.570;6.036;2024-02-04T04:43:12;102162.09;;;11.29;100.00
49827;BME280;35715;51.570;6.036;2024-02-04T04:45:37;102157.19;;;11.32;100.00
49827;BME280;35715;51.570;6.036;2024-02-04T04:48:03;102152.16;;;11.33;100.00
49827;BME280;35715;51.570;6.036;2024-02-04T04:50:29;102163.25;;;11.32;100.00
49827;BME280;35715;51.570;6.036;2024-02-04T04:52:54;102156.16;;;11.30;100.00
49827;BME280;35715;51.570;6.036;2024-02-04T04:55:19;102149.56;;;11.33;100.00
49827;BME280;35715;51.570;6.036;2024-02-04T04:57:45;102146.47;;;11.38;100.00
49827;BME280;35715;51.570;6.036;2024-02-04T05:00:11;102140.81;;;11.42;100.00
49827;BME280;35715;51.570;6.036;2024-02-04T05:02:39;102142.59;;;11.43;100.00
49827;BME280;35715;51.570;6.036;2024-02-04T05:05:05;102145.56;;;11.47;100.00
49827;BME280;35715;51.570;6.036;2024-02-04T05:07:30;102145.31;;;11.44;100.00
49827;BME280;35715;51.570;6.036;2024-02-04T05:09:56;102148.56;;;11.42;100.00
49827;BME280;35715;51.570;6.036;2024-02-04T05:12:21;102137.56;;;11.44;100.00
49827;BME280;35715;51.570;6.036;2024-02-04T05:14:47;102120.66;;;11.48;100.00
49827;BME280;35715;51.570;6.036;2024-02-04T05:17:12;102114.56;;;11.47;100.00
49827;BME280;35715;51.570;6.036;2024-02-04T05:19:38;102134.47;;;11.48;100.00
49827;BME280;35715;51.570;6.036;2024-02-04T05:22:03;102135.34;;;11.49;100.00
49827;BME280;35715;51.570;6.036;2024-02-04T05:24:28;102134.59;;;11.50;100.00
49827;BME280;35715;51.570;6.036;2024-02-04T05:26:54;102118.97;;;11.48;100.00
49827;BME280;35715;51.570;6.036;2024-02-04T05:29:19;102125.03;;;11.49;100.00
49827;BME280;35715;51.570;6.036;2024-02-04T05:31:44;102124.63;;;11.54;100.00
49827;BME280;35715;51.570;6.036;2024-02-04T05:34:10;102110.03;;;11.55;100.00
49827;BME280;35715;51.570;6.036;2024-02-04T05:36:36;102115.75;;;11.51;100.00
49827;BME280;35715;51.570;6.036;2024-02-04T05:39:15;102122.72;;;11.42;100.00
49827;BME280;35715;51.570;6.036;2024-02-04T05:41:41;102121.16;;;11.44;100.00
49827;BME280;35715;51.570;6.036;2024-02-04T05:44:07;102113.28;;;11.42;100.00
49827;BME280;35715;51.570;6.036;2024-02-04T05:46:36;102118.06;;;11.38;100.00
49827;BME280;35715;51.570;6.036;2024-02-04T05:49:21;102113.91;;;11.29;100.00
49827;BME280;35715;51.570;6.036;2024-02-04T05:51:47;102111.44;;;11.31;100.00
49827;BME280;35715;51.570;6.036;2024-02-04T05:54:12;102108.72;;;11.29;100.00
49827;BME280;35715;51.570;6.036;2024-02-04T05:56:38;102108.84;;;11.31;100.00
49827;BME280;35715;51.570;6.036;2024-02-04T05:59:03;102115.97;;;11.33;100.00
49827;BME280;35715;51.570;6.036;2024-02-04T06:01:29;102118.56;;;11.33;100.00
49827;BME280;35715;51.570;6.036;2024-02-04T06:03:54;102121.16;;;11.33;100.00
49827;BME280;35715;51.570;6.036;2024-02-04T06:06:20;102114.81;;;11.30;100.00
49827;BME280;35715;51.570;6.036;2024-02-04T06:08:48;102120.00;;;11.30;100.00
49827;BME280;35715;51.570;6.036;2024-02-04T06:11:17;102116.59;;;11.31;100.00
49827;BME280;35715;51.570;6.036;2024-02-04T06:13:43;102097.13;;;11.34;100.00
49827;BME280;35715;51.570;6.036;2024-02-04T06:16:09;102091.19;;;11.35;100.00
49827;BME280;35715;51.570;6.036;2024-02-04T06:18:38;102089.50;;;11.36;100.00
49827;BME280;35715;51.570;6.036;2024-02-04T06:21:04;102106.16;;;11.40;100.00
49827;BME280;35715;51.570;6.036;2024-02-04T06:23:30;102100.59;;;11.35;100.00
49827;BME280;35715;51.570;6.036;2024-02-04T06:25:58;102108.97;;;11.32;100.00
49827;BME280;35715;51.570;6.036;2024-02-04T06:28:26;102113.38;;;11.33;100.00
49827;BME280;35715;51.570;6.036;2024-02-04T06:30:51;102092.97;;;11.26;100.00
49827;BME280;35715;51.570;6.036;2024-02-04T06:33:17;102095.53;;;11.26;100.00
49827;BME280;35715;51.570;6.036;2024-02-04T06:35:42;102090.63;;;11.29;100.00
49827;BME280;35715;51.570;6.036;2024-02-04T06:38:10;102070.09;;;11.31;100.00
49827;BME280;35715;51.570;6.036;2024-02-04T06:40:36;102068.94;;;11.27;100.00
49827;BME280;35715;51.570;6.036;2024-02-04T06:43:01;102075.41;;;11.32;100.00
49827;BME280;35715;51.570;6.036;2024-02-04T06:45:26;102077.84;;;11.31;100.00
49827;BME280;35715;51.570;6.036;2024-02-04T06:47:52;102072.44;;;11.28;100.00
49827;BME280;35715;51.570;6.036;2024-02-04T06:50:17;102080.56;;;11.32;100.00
49827;BME280;35715;51.570;6.036;2024-02-04T06:52:43;102081.75;;;11.36;100.00
49827;BME280;35715;51.570;6.036;2024-02-04T06:55:09;102080.06;;;11.36;100.00
49827;BME280;35715;51.570;6.036;2024-02-04T06:57:40;102075.13;;;11.29;100.00
49827;BME280;35715;51.570;6.036;2024-02-04T07:00:06;102082.88;;;11.29;100.00
49827;BME280;35715;51.570;6.036;2024-02-04T07:02:34;102083.81;;;11.30;100.00
49827;BME280;35715;51.570;6.036;2024-02-04T07:04:59;102086.78;;;11.24;100.00
49827;BME280;35715;51.570;6.036;2024-02-04T07:07:25;102095.69;;;11.28;100.00
49827;BME280;35715;51.570;6.036;2024-02-04T07:09:50;102095.81;;;11.29;100.00
49827;BME280;35715;51.570;6.036;2024-02-04T07:12:15;102096.97;;;11.23;100.00
49827;BME280;35715;51.570;6.036;2024-02-04T07:14:41;102100.47;;;11.23;100.00
49827;BME280;35715;51.570;6.036;2024-02-04T07:17:06;102097.25;;;11.26;100.00
49827;BME280;35715;51.570;6.036;2024-02-04T07:19:31;102100.88;;;11.17;100.00
49827;BME280;35715;51.570;6.036;2024-02-04T07:22:00;102106.53;;;11.13;100.00
49827;BME280;35715;51.570;6.036;2024-02-04T07:24:25;102104.06;;;11.15;100.00
49827;BME280;35715;51.570;6.036;2024-02-04T07:26:50;102105.91;;;11.16;100.00
49827;BME280;35715;51.570;6.036;2024-02-04T07:29:16;102115.56;;;11.18;100.00
49827;BME280;35715;51.570;6.036;2024-02-04T07:31:42;102116.22;;;11.16;100.00
49827;BME280;35715;51.570;6.036;2024-02-04T07:34:07;102112.84;;;11.17;100.00
49827;BME280;35715;51.570;6.036;2024-02-04T07:36:32;102110.53;;;11.20;100.00
49827;BME280;35715;51.570;6.036;2024-02-04T07:38:58;102105.50;;;11.22;100.00
49827;BME280;35715;51.570;6.036;2024-02-04T07:41:24;102097.09;;;11.24;100.00
49827;BME280;35715;51.570;6.036;2024-02-04T07:43:50;102097.25;;;11.26;100.00
49827;BME280;35715;51.570;6.036;2024-02-04T07:46:15;102105.25;;;11.29;100.00
49827;BME280;35715;51.570;6.036;2024-02-04T07:48:40;102108.47;;;11.26;100.00
49827;BME280;35715;51.570;6.036;2024-02-04T07:51:24;102107.44;;;11.24;100.00
49827;BME280;35715;51.570;6.036;2024-02-04T07:53:49;102100.84;;;11.28;100.00
49827;BME280;35715;51.570;6.036;2024-02-04T07:56:17;102094.78;;;11.27;100.00
49827;BME280;35715;51.570;6.036;2024-02-04T07:58:42;102098.25;;;11.28;100.00
49827;BME280;35715;51.570;6.036;2024-02-04T08:01:08;102094.91;;;11.29;100.00
49827;BME280;35715;51.570;6.036;2024-02-04T08:03:33;102090.78;;;11.31;100.00
49827;BME280;35715;51.570;6.036;2024-02-04T08:05:58;102080.84;;;11.35;100.00
49827;BME280;35715;51.570;6.036;2024-02-04T08:08:24;102085.59;;;11.41;100.00
49827;BME280;35715;51.570;6.036;2024-02-04T08:10:49;102084.59;;;11.39;100.00
49827;BME280;35715;51.570;6.036;2024-02-04T08:13:14;102090.28;;;11.45;100.00
49827;BME280;35715;51.570;6.036;2024-02-04T08:15:40;102086.78;;;11.45;100.00
49827;BME280;35715;51.570;6.036;2024-02-04T08:18:05;102089.75;;;11.39;100.00
49827;BME280;35715;51.570;6.036;2024-02-04T08:20:31;102081.25;;;11.40;100.00
49827;BME280;35715;51.570;6.036;2024-02-04T08:22:59;102076.06;;;11.40;100.00
49827;BME280;35715;51.570;6.036;2024-02-04T08:25:24;102072.19;;;11.45;100.00
49827;BME280;35715;51.570;6.036;2024-02-04T08:27:50;102080.94;;;11.47;100.00
49827;BME280;35715;51.570;6.036;2024-02-04T08:30:16;102068.44;;;11.42;100.00
49827;BME280;35715;51.570;6.036;2024-02-04T08:32:44;102070.78;;;11.39;100.00
49827;BME280;35715;51.570;6.036;2024-02-04T08:35:10;102071.91;;;11.42;100.00
49827;BME280;35715;51.570;6.036;2024-02-04T08:37:35;102069.22;;;11.41;100.00
49827;BME280;35715;51.570;6.036;2024-02-04T08:40:03;102069.97;;;11.40;100.00
49827;BME280;35715;51.570;6.036;2024-02-04T08:42:29;102069.84;;;11.38;100.00
49827;BME280;35715;51.570;6.036;2024-02-04T08:44:57;102065.31;;;11.46;100.00
49827;BME280;35715;51.570;6.036;2024-02-04T08:47:23;102071.28;;;11.45;100.00
49827;BME280;35715;51.570;6.036;2024-02-04T08:49:48;102074.88;;;11.47;100.00
49827;BME280;35715;51.570;6.036;2024-02-04T08:52:13;102068.44;;;11.42;100.00
49827;BME280;35715;51.570;6.036;2024-02-04T08:54:39;102068.19;;;11.39;100.00
49827;BME280;35715;51.570;6.036;2024-02-04T08:57:05;102072.69;;;11.41;100.00
49827;BME280;35715;51.570;6.036;2024-02-04T08:59:30;102073.75;;;11.43;100.00
49827;BME280;35715;51.570;6.036;2024-02-04T09:01:55;102077.09;;;11.42;100.00
49827;BME280;35715;51.570;6.036;2024-02-04T09:04:23;102074.38;;;11.41;100.00
49827;BME280;35715;51.570;6.036;2024-02-04T09:06:49;102079.81;;;11.44;100.00
49827;BME280;35715;51.570;6.036;2024-02-04T09:09:14;102077.97;;;11.43;100.00
49827;BME280;35715;51.570;6.036;2024-02-04T09:11:43;102084.09;;;11.43;100.00
49827;BME280;35715;51.570;6.036;2024-02-04T09:14:08;102076.31;;;11.43;100.00
49827;BME280;35715;51.570;6.036;2024-02-04T09:16:33;102084.09;;;11.43;100.00
49827;BME280;35715;51.570;6.036;2024-02-04T09:18:59;102092.09;;;11.46;100.00
49827;BME280;35715;51.570;6.036;2024-02-04T09:21:24;102078.38;;;11.47;100.00
49827;BME280;35715;51.570;6.036;2024-02-04T09:23:49;102084.97;;;11.44;100.00
49827;BME280;35715;51.570;6.036;2024-02-04T09:26:15;102089.38;;;11.45;100.00
49827;BME280;35715;51.570;6.036;2024-02-04T09:28:40;102088.19;;;11.41;100.00
49827;BME280;35715;51.570;6.036;2024-02-04T09:31:08;102068.97;;;11.48;100.00
49827;BME280;35715;51.570;6.036;2024-02-04T09:33:37;102075.28;;;11.51;100.00
49827;BME280;35715;51.570;6.036;2024-02-04T09:36:03;102073.97;;;11.57;100.00
49827;BME280;35715;51.570;6.036;2024-02-04T09:38:29;102090.53;;;11.59;100.00
49827;BME280;35715;51.570;6.036;2024-02-04T09:40:54;102087.31;;;11.61;100.00
49827;BME280;35715;51.570;6.036;2024-02-04T09:43:20;102095.94;;;11.62;100.00
49827;BME280;35715;51.570;6.036;2024-02-04T09:45:46;102097.22;;;11.67;100.00
49827;BME280;35715;51.570;6.036;2024-02-04T09:48:17;102083.91;;;11.72;100.00
49827;BME280;35715;51.570;6.036;2024-02-04T09:50:44;102089.84;;;11.71;100.00
49827;BME280;35715;51.570;6.036;2024-02-04T09:53:14;102089.97;;;11.73;100.00
49827;BME280;35715;51.570;6.036;2024-02-04T09:55:45;102091.03;;;11.75;100.00
49827;BME280;35715;51.570;6.036;2024-02-04T09:58:10;102080.94;;;11.78;100.00
49827;BME280;35715;51.570;6.036;2024-02-04T10:00:38;102075.91;;;11.80;100.00
49827;BME280;35715;51.570;6.036;2024-02-04T10:03:05;102080.41;;;11.82;100.00
49827;BME280;35715;51.570;6.036;2024-02-04T10:05:31;102074.31;;;11.82;100.00
49827;BME280;35715;51.570;6.036;2024-02-04T10:07:56;102077.66;;;11.91;100.00
49827;BME280;35715;51.570;6.036;2024-02-04T10:10:21;102078.59;;;11.92;100.00
49827;BME280;35715;51.570;6.036;2024-02-04T10:12:47;102071.88;;;11.94;100.00
49827;BME280;35715;51.570;6.036;2024-02-04T10:15:12;102079.34;;;11.90;100.00
49827;BME280;35715;51.570;6.036;2024-02-04T10:17:42;102076.91;;;11.92;100.00
49827;BME280;35715;51.570;6.036;2024-02-04T10:20:10;102089.72;;;11.90;100.00
49827;BME280;35715;51.570;6.036;2024-02-04T10:22:35;102096.06;;;11.94;100.00
49827;BME280;35715;51.570;6.036;2024-02-04T10:25:10;102081.34;;;11.93;100.00
49827;BME280;35715;51.570;6.036;2024-02-04T10:27:41;102094.38;;;11.84;100.00
49827;BME280;35715;51.570;6.036;2024-02-04T10:30:06;102096.97;;;11.84;100.00
49827;BME280;35715;51.570;6.036;2024-02-04T10:32:34;102104.72;;;11.84;100.00
49827;BME280;35715;51.570;6.036;2024-02-04T10:35:00;102114.56;;;11.88;100.00
49827;BME280;35715;51.570;6.036;2024-02-04T10:37:27;102110.41;;;11.80;100.00
49827;BME280;35715;51.570;6.036;2024-02-04T10:39:52;102111.28;;;11.81;100.00
49827;BME280;35715;51.570;6.036;2024-02-04T10:42:24;102111.16;;;11.79;100.00
49827;BME280;35715;51.570;6.036;2024-02-04T10:44:52;102106.13;;;11.81;100.00
49827;BME280;35715;51.570;6.036;2024-02-04T10:47:22;102121.78;;;11.82;100.00
49827;BME280;35715;51.570;6.036;2024-02-04T10:49:50;102108.97;;;11.84;100.00
49827;BME280;35715;51.570;6.036;2024-02-04T10:52:18;102105.22;;;11.90;100.00
49827;BME280;35715;51.570;6.036;2024-02-04T10:54:44;102101.88;;;11.92;100.00
49827;BME280;35715;51.570;6.036;2024-02-04T10:57:12;102097.22;;;11.98;100.00
49827;BME280;35715;51.570;6.036;2024-02-04T10:59:42;102091.00;;;11.96;100.00
49827;BME280;35715;51.570;6.036;2024-02-04T11:02:10;102085.97;;;11.97;100.00
49827;BME280;35715;51.570;6.036;2024-02-04T11:04:36;102074.84;;;11.98;100.00
49827;BME280;35715;51.570;6.036;2024-02-04T11:07:03;102077.16;;;12.05;100.00
49827;BME280;35715;51.570;6.036;2024-02-04T11:09:29;102077.41;;;12.09;100.00
49827;BME280;35715;51.570;6.036;2024-02-04T11:11:56;102078.19;;;12.07;100.00
49827;BME280;35715;51.570;6.036;2024-02-04T11:14:23;102074.69;;;12.07;100.00
49827;BME280;35715;51.570;6.036;2024-02-04T11:25:54;102062.41;;;12.04;100.00
49827;BME280;35715;51.570;6.036;2024-02-04T11:28:21;102055.78;;;12.08;100.00
49827;BME280;35715;51.570;6.036;2024-02-04T11:30:49;102037.16;;;12.12;100.00
49827;BME280;35715;51.570;6.036;2024-02-04T11:33:18;102038.09;;;12.13;100.00
49827;BME280;35715;51.570;6.036;2024-02-04T11:35:44;102038.84;;;12.12;100.00
49827;BME280;35715;51.570;6.036;2024-02-04T11:38:10;102031.97;;;12.12;100.00
49827;BME280;35715;51.570;6.036;2024-02-04T11:40:39;102030.84;;;12.09;100.00
49827;BME280;35715;51.570;6.036;2024-02-04T11:43:05;102027.56;;;12.11;100.00
49827;BME280;35715;51.570;6.036;2024-02-04T11:45:31;102027.84;;;12.14;100.00
49827;BME280;35715;51.570;6.036;2024-02-04T11:48:03;102024.09;;;12.11;100.00
49827;BME280;35715;51.570;6.036;2024-02-04T11:50:29;102028.38;;;12.10;100.00
49827;BME280;35715;51.570;6.036;2024-02-04T11:55:30;102026.31;;;12.06;100.00
49827;BME280;35715;51.570;6.036;2024-02-04T11:57:57;102034.69;;;12.14;100.00
49827;BME280;35715;51.570;6.036;2024-02-04T12:00:22;102031.84;;;12.11;100.00
49827;BME280;35715;51.570;6.036;2024-02-04T12:03:00;102026.44;;;12.07;100.00
49827;BME280;35715;51.570;6.036;2024-02-04T12:05:26;102017.22;;;12.11;100.00
49827;BME280;35715;51.570;6.036;2024-02-04T12:07:53;102021.63;;;12.12;100.00
49827;BME280;35715;51.570;6.036;2024-02-04T12:10:18;102016.22;;;12.09;100.00
49827;BME280;35715;51.570;6.036;2024-02-04T12:12:43;102012.22;;;12.13;100.00
49827;BME280;35715;51.570;6.036;2024-02-04T12:15:09;102010.91;;;12.07;100.00
49827;BME280;35715;51.570;6.036;2024-02-04T12:17:35;102006.16;;;12.02;100.00
49827;BME280;35715;51.570;6.036;2024-02-04T12:20:00;102001.41;;;11.96;100.00
49827;BME280;35715;51.570;6.036;2024-02-04T12:22:28;101997.25;;;11.98;100.00
49827;BME280;35715;51.570;6.036;2024-02-04T12:24:53;101993.22;;;12.02;100.00
49827;BME280;35715;51.570;6.036;2024-02-04T12:27:19;101993.56;;;12.06;100.00
49827;BME280;35715;51.570;6.036;2024-02-04T12:29:44;101999.81;;;12.09;100.00
49827;BME280;35715;51.570;6.036;2024-02-04T12:32:13;102003.16;;;12.07;100.00
49827;BME280;35715;51.570;6.036;2024-02-04T12:34:38;102001.34;;;12.06;100.00
49827;BME280;35715;51.570;6.036;2024-02-04T12:37:07;101996.84;;;12.04;100.00
49827;BME280;35715;51.570;6.036;2024-02-04T12:39:33;101998.38;;;12.02;100.00
49827;BME280;35715;51.570;6.036;2024-02-04T12:41:59;102005.50;;;12.04;100.00
49827;BME280;35715;51.570;6.036;2024-02-04T12:44:25;101995.03;;;12.03;100.00
49827;BME280;35715;51.570;6.036;2024-02-04T12:46:51;101988.03;;;12.02;100.00
49827;BME280;35715;51.570;6.036;2024-02-04T12:49:19;101984.03;;;12.05;100.00
49827;BME280;35715;51.570;6.036;2024-02-04T12:51:46;101984.03;;;12.05;100.00
49827;BME280;35715;51.570;6.036;2024-02-04T12:54:12;101984.69;;;12.03;100.00